Logan, OH

3:36 AM EST on November 27, 2014 (GMT -0500)
OHDOT 33-Hocking County Garage | Change Station
CLOSE
Current Station
Personal Weather Station
Location: Logan, OH
Elevation: 759 ft
Nearby Weather Stations

Elev 759 ft 39.54 °N, 82.44 °W | Updated 34 minutes ago

Haze
Haze
28.0 °F
Feels Like 28.0 °F
N
0.0
Wind Variable Wind from SSW
Gusts 2.0 mph

Today
High -- | Low -- °F
--% Chance of Precip.
Yesterday
High -- | Low -- °F
Precip. -- in
7:27 AM 5:07 PM
Waxing Crescent, 27% visible
Pressure 30.06 in
Visibility 6.0 miles
Clouds Overcast 3100 ft
Dew Point 26.0 °F
Humidity 89%
Rainfall -999.00 in
Snow Depth Not available.
UV 0 out of 12
Pollen .10 out of 12
Air Quality Not available.
Flu Activity Not available.
METAR KLHQ 270753Z AUTO 34004KT 6SM HZ OVC031 00/M03 A3004 RMK AO2 SLP177 T00001028

More Conditions Fewer Conditions

Pressure 30.06 in
Visibility 6.0 miles
Clouds Overcast 3100 ft
Dew Point 26.0 °F
Humidity 89%
Rainfall -999.00 in
Snow Depth Not available.
UV 0 out of 12
Pollen .10 out of 12
Air Quality Not available.
Flu Activity Not available.
METAR KLHQ 270753Z AUTO 34004KT 6SM HZ OVC031 00/M03 A3004 RMK AO2 SLP177 T00001028

More Conditions Fewer Conditions

10-Day Weather Forecast

Almanac

Astronomy

Nov. 27, 2014 Rise Set
Actual Time
Civil Twilight
Nautical Twilight
Astronomical Twilight
Moon
Length of Visible Light
Length of Day
Tomorrow will be .
, % of the Moon is Illuminated

Today's Extremes

State Highs State Lows

Community

WunderPhotos

Upload Photos

1,773,965 photos uploaded!

WunderBlogs® & News

Nearby

Air Quality

  Air Quality AQ Index Pollutant
Not available.

Snow Depth

Station Depth Elevation

Earthquake Activity

City Distance Mag. Time & Date
Minimum magnitude displayed is 2.5.

Coastal Water Temperatures

Place Temperature

Nearby Weather Stations